Time;durP1;ratioP1;P1;durP2;ratioP2;P2;SDS_P1;SDS_P2;PMS_P1;PMS_P2;Temp;Humidity;BMP_temperature;BMP_pressure;BME280_temperature;BME280_humidity;BME280_pressure;Samples;Min_cycle;Max_cycle;Signal;HPM_P1;HPM_P2
2023/03/31 00:01:32;;;;;;;6.30;5.70;;;;;;;10.25;62.95;94820.97;5074582;28;20443;-80
2023/03/31 00:04:03;;;;;;;7.00;4.73;;;;;;;10.24;62.08;94807.03;5074506;28;20440;-80
2023/03/31 00:06:31;;;;;;;7.00;5.40;;;;;;;10.23;62.30;94815.84;5074381;28;20473;-79
2023/03/31 00:09:00;;;;;;;4.83;4.03;;;;;;;10.15;62.22;94809.56;5074623;28;20449;-80
2023/03/31 00:11:28;;;;;;;5.53;4.70;;;;;;;10.11;62.73;94821.25;5074263;28;20475;-80
2023/03/31 00:13:55;;;;;;;10.87;5.00;;;;;;;10.11;61.79;94822.09;5074112;28;20878;-79
2023/03/31 00:16:23;;;;;;;5.17;4.60;;;;;;;10.15;62.21;94814.81;5055406;28;20448;-79
2023/03/31 00:18:50;;;;;;;5.80;4.70;;;;;;;10.17;61.67;94818.97;5074163;28;20454;-79
2023/03/31 00:21:28;;;;;;;8.43;4.63;;;;;;;10.15;62.56;94812.19;5074023;28;20476;-80
2023/03/31 00:23:57;;;;;;;6.07;5.13;;;;;;;10.13;62.10;94814.13;5074171;28;20533;-80
2023/03/31 00:26:25;;;;;;;10.63;5.00;;;;;;;10.15;62.53;94815.66;5074272;28;20464;-80
2023/03/31 00:28:52;;;;;;;7.00;5.00;;;;;;;10.15;63.15;94809.56;5073980;28;20444;-79
2023/03/31 00:31:19;;;;;;;14.17;5.57;;;;;;;10.10;62.19;94804.69;5073810;28;20849;-79
2023/03/31 00:33:48;;;;;;;6.97;4.60;;;;;;;10.12;62.22;94807.19;5074046;28;20441;-80
2023/03/31 00:36:20;;;;;;;12.40;4.70;;;;;;;10.11;62.33;94805.53;5073819;28;20993;-80
2023/03/31 00:38:47;;;;;;;10.70;5.13;;;;;;;10.08;63.16;94796.13;5072710;28;20445;-79
2023/03/31 00:41:14;;;;;;;11.13;5.10;;;;;;;10.06;62.92;94798.03;5073777;28;20494;-80
2023/03/31 00:43:42;;;;;;;10.40;4.80;;;;;;;10.04;62.89;94794.72;5073507;28;20448;-80
2023/03/31 00:46:16;;;;;;;8.17;4.60;;;;;;;9.97;63.25;94793.59;5073666;28;20448;-79
2023/03/31 00:48:50;;;;;;;8.23;4.67;;;;;;;9.90;64.15;94793.28;5073982;28;20448;-78
2023/03/31 00:51:18;;;;;;;8.73;5.17;;;;;;;9.89;64.07;94796.03;5073507;28;20506;-79
2023/03/31 00:53:54;;;;;;;5.50;4.13;;;;;;;9.88;64.56;94794.38;5073592;28;21034;-80
2023/03/31 00:56:22;;;;;;;5.87;4.80;;;;;;;9.86;64.42;94791.88;5073560;28;20494;-79
2023/03/31 00:58:49;;;;;;;8.53;5.40;;;;;;;9.87;64.64;94798.78;5073378;28;20529;-80
2023/03/31 01:01:20;;;;;;;8.40;4.90;;;;;;;9.91;63.89;94783.63;5073491;28;20940;-79
2023/03/31 01:03:50;;;;;;;6.63;5.23;;;;;;;9.93;63.61;94785.16;5073126;28;20447;-80
2023/03/31 01:06:18;;;;;;;5.47;4.10;;;;;;;9.98;63.68;94783.94;5073144;28;20471;-79
2023/03/31 01:08:47;;;;;;;6.10;4.20;;;;;;;9.95;63.71;94779.78;5054345;28;20496;-79
2023/03/31 01:11:18;;;;;;;5.07;3.83;;;;;;;9.97;63.27;94775.25;5073385;28;20548;-78
2023/03/31 01:13:48;;;;;;;7.40;4.67;;;;;;;10.01;63.51;94771.41;5072840;28;20440;-80
2023/03/31 01:16:15;;;;;;;6.70;4.60;;;;;;;10.06;62.99;94776.25;5053891;28;20476;-80
2023/03/31 01:18:44;;;;;;;6.73;4.20;;;;;;;10.06;63.07;94778.88;5053896;28;20488;-80
2023/03/31 01:21:55;;;;;;;4.10;3.73;;;;;;;10.09;62.31;94771.56;5072883;28;20439;-80
2023/03/31 01:25:00;;;;;;;6.30;4.33;;;;;;;10.10;63.28;94775.03;5072607;28;20456;-80
2023/03/31 01:27:52;;;;;;;7.93;3.80;;;;;;;10.15;62.74;94775.50;5072480;28;20444;-80
2023/03/31 01:31:13;;;;;;;5.17;4.53;;;;;;;10.15;62.73;94783.34;5072520;28;20539;-80
2023/03/31 01:34:12;;;;;;;9.70;4.97;;;;;;;10.05;64.22;94783.28;4991002;28;20452;-80
2023/03/31 01:37:23;;;;;;;5.60;3.93;;;;;;;10.02;63.77;94785.34;4913991;29;20454;-79
2023/03/31 01:40:24;;;;;;;6.30;4.37;;;;;;;10.06;63.89;94792.81;4857856;29;20450;-80
2023/03/31 01:42:57;;;;;;;5.07;4.57;;;;;;;10.09;64.61;94796.97;4857877;29;20453;-79
2023/03/31 01:45:37;;;;;;;6.60;4.80;;;;;;;10.08;65.59;94795.28;4857809;29;20454;-80
2023/03/31 01:48:13;;;;;;;4.87;4.13;;;;;;;10.10;64.80;94799.44;4857737;29;20510;-80
2023/03/31 01:50:47;;;;;;;8.33;5.40;;;;;;;10.14;63.89;94805.28;4857603;29;20544;-80
2023/03/31 01:53:20;;;;;;;8.40;3.77;;;;;;;10.18;63.97;94804.91;4857976;29;20449;-80
2023/03/31 01:56:01;;;;;;;9.77;4.40;;;;;;;10.18;63.55;94801.44;4841863;29;20583;-80
2023/03/31 01:58:33;;;;;;;6.17;4.20;;;;;;;10.21;63.06;94807.28;4828176;29;21048;-80
2023/03/31 02:01:05;;;;;;;9.07;3.90;;;;;;;10.30;63.62;94799.59;4857852;29;20442;-80
2023/03/31 02:03:37;;;;;;;5.30;4.63;;;;;;;10.36;63.34;94792.03;4857869;29;20483;-80
2023/03/31 02:06:10;;;;;;;10.77;4.00;;;;;;;10.37;62.82;94801.56;4857556;29;20478;-80
2023/03/31 02:08:43;;;;;;;10.10;4.10;;;;;;;10.40;62.66;94803.91;4893836;29;20885;-80
2023/03/31 02:11:12;;;;;;;4.33;3.93;;;;;;;10.45;63.37;94809.63;4927454;29;20458;-81
2023/03/31 02:13:43;;;;;;;9.03;4.93;;;;;;;10.45;63.55;94807.00;4941052;28;20993;-80
2023/03/31 02:16:15;;;;;;;8.73;5.90;;;;;;;10.41;62.37;94816.09;5051553;28;21044;-80
2023/03/31 02:18:44;;;;;;;7.33;4.77;;;;;;;10.39;62.77;94814.53;5072227;28;20449;-79
2023/03/31 02:21:13;;;;;;;6.33;4.50;;;;;;;10.37;62.48;94822.53;5072004;28;20449;-80
2023/03/31 02:23:40;;;;;;;6.57;4.60;;;;;;;10.42;63.67;94823.00;5071863;28;20446;-80
2023/03/31 02:26:14;;;;;;;6.90;5.87;;;;;;;10.44;62.80;94836.81;5053056;28;20951;-80
2023/03/31 02:28:41;;;;;;;6.30;4.73;;;;;;;10.49;63.36;94844.28;5072398;28;20439;-80
2023/03/31 02:31:20;;;;;;;6.83;4.43;;;;;;;10.48;64.74;94840.84;5071951;28;20946;-80
2023/03/31 02:33:47;;;;;;;6.03;5.23;;;;;;;10.38;64.82;94839.94;5036693;28;20447;-80
2023/03/31 02:36:14;;;;;;;12.20;5.57;;;;;;;10.27;67.74;94837.41;5071865;28;20900;-80
2023/03/31 02:38:46;;;;;;;12.87;7.10;;;;;;;10.24;69.14;94854.22;5071905;28;20842;-81
2023/03/31 02:41:14;;;;;;;7.40;6.40;;;;;;;10.23;70.71;94847.31;5072030;28;20460;-79
2023/03/31 02:43:41;;;;;;;9.50;6.60;;;;;;;10.25;70.46;94857.69;5072172;28;20447;-80
2023/03/31 02:46:08;;;;;;;11.23;5.77;;;;;;;10.24;71.04;94853.41;5071917;28;20564;-80
2023/03/31 02:48:39;;;;;;;10.93;5.70;;;;;;;10.20;73.46;94850.22;5053226;28;20440;-80
2023/03/31 02:51:51;;;;;;;11.77;6.83;;;;;;;10.09;73.50;94857.25;5052775;28;20440;-80
2023/03/31 02:54:40;;;;;;;18.27;9.43;;;;;;;10.01;77.02;94863.16;5072033;28;20546;-80
2023/03/31 02:57:22;;;;;;;8.20;7.37;;;;;;;9.98;77.62;94850.28;5071616;28;20524;-80
2023/03/31 03:00:03;;;;;;;10.88;7.00;;;;;;;9.61;78.70;94837.63;5070277;28;20442;-81
2023/03/31 03:02:42;;;;;;;9.60;7.27;;;;;;;9.55;80.16;94835.50;5072737;28;20209;-81
2023/03/31 03:05:22;;;;;;;10.83;6.93;;;;;;;9.66;81.08;94834.63;5075265;28;20456;-81
2023/03/31 03:07:58;;;;;;;12.07;7.20;;;;;;;9.63;83.03;94822.59;5075449;28;20447;-81
2023/03/31 03:10:35;;;;;;;16.57;10.10;;;;;;;9.68;83.66;94819.59;5057219;28;20451;-80
2023/03/31 03:13:09;;;;;;;12.20;9.30;;;;;;;9.73;84.38;94821.84;5075620;28;20473;-81
2023/03/31 03:15:40;;;;;;;16.03;8.13;;;;;;;9.75;85.72;94825.97;5075624;28;20571;-81
2023/03/31 03:18:07;;;;;;;13.00;7.50;;;;;;;9.79;85.76;94811.66;5056028;28;20428;-81
2023/03/31 03:20:34;;;;;;;10.67;8.20;;;;;;;9.84;85.42;94813.94;5075078;28;20997;-80
2023/03/31 03:23:03;;;;;;;12.77;7.63;;;;;;;9.76;84.86;94804.06;5075017;28;20436;-81
2023/03/31 03:25:30;;;;;;;10.50;6.10;;;;;;;9.80;83.79;94797.59;5074997;28;20451;-80
2023/03/31 03:27:56;;;;;;;12.37;6.60;;;;;;;9.79;83.16;94788.09;5075389;28;20506;-82
2023/03/31 03:30:25;;;;;;;7.60;5.23;;;;;;;9.85;83.14;94795.47;5075193;28;20505;-80
2023/03/31 03:32:53;;;;;;;13.27;6.47;;;;;;;9.90;83.88;94792.44;5075219;28;20448;-84
2023/03/31 03:35:20;;;;;;;6.77;6.07;;;;;;;9.94;83.47;94789.44;5074952;28;20487;-82
2023/03/31 03:37:46;;;;;;;10.10;6.07;;;;;;;9.98;83.45;94789.19;5075025;28;20447;-82
2023/03/31 03:40:14;;;;;;;7.00;5.17;;;;;;;9.96;83.22;94788.47;5075041;28;20455;-79
2023/03/31 03:42:40;;;;;;;7.20;5.70;;;;;;;9.92;83.10;94788.75;5075028;28;20476;-78
2023/03/31 03:45:08;;;;;;;8.00;5.50;;;;;;;9.91;81.83;94794.94;5074588;28;20452;-79
2023/03/31 03:47:36;;;;;;;9.43;5.00;;;;;;;9.90;81.12;94798.53;5075027;28;20502;-79
2023/03/31 03:50:04;;;;;;;8.70;5.10;;;;;;;9.94;80.61;94784.19;5074777;28;20508;-80
2023/03/31 03:52:31;;;;;;;8.20;5.30;;;;;;;9.92;79.50;94786.13;5055902;28;20447;-80
2023/03/31 03:54:58;;;;;;;7.63;5.20;;;;;;;9.99;79.19;94780.34;5074424;28;20953;-79
2023/03/31 03:57:25;;;;;;;5.20;4.70;;;;;;;10.05;79.00;94777.22;5074861;28;20455;-80
2023/03/31 03:59:51;;;;;;;6.10;4.90;;;;;;;10.11;80.44;94772.25;5074520;28;20447;-79
2023/03/31 04:02:18;;;;;;;11.10;6.80;;;;;;;10.06;79.89;94782.31;5074642;28;20449;-78
2023/03/31 04:04:46;;;;;;;10.60;7.87;;;;;;;10.11;80.60;94781.94;5074154;28;20450;-78
2023/03/31 04:07:13;;;;;;;29.77;13.60;;;;;;;10.17;81.04;94778.81;5074167;28;20486;-78
2023/03/31 04:09:40;;;;;;;19.90;12.10;;;;;;;10.23;80.60;94773.06;5072497;28;20460;-78
2023/03/31 04:12:07;;;;;;;16.70;10.10;;;;;;;10.29;81.28;94769.91;5075102;28;20967;-78
2023/03/31 04:14:33;;;;;;;9.10;8.00;;;;;;;10.36;80.98;94778.91;5075090;28;20449;-78
2023/03/31 04:17:02;;;;;;;10.60;8.53;;;;;;;10.39;81.04;94768.16;5075333;28;20492;-78
2023/03/31 04:19:28;;;;;;;9.73;7.33;;;;;;;10.29;80.56;94772.53;5075450;28;20433;-78
2023/03/31 04:22:01;;;;;;;10.90;7.37;;;;;;;10.34;80.83;94790.50;5075334;28;20451;-78
2023/03/31 04:24:31;;;;;;;9.07;7.30;;;;;;;10.32;80.03;94785.38;5075228;28;20917;-79
2023/03/31 04:26:59;;;;;;;9.90;7.80;;;;;;;10.34;80.56;94787.88;5073542;28;20456;-79
2023/03/31 04:29:26;;;;;;;16.97;10.73;;;;;;;10.21;81.48;94788.94;5075250;28;20993;-79
2023/03/31 04:31:57;;;;;;;17.73;12.23;;;;;;;9.76;84.93;94790.97;5075849;28;20945;-78
2023/03/31 04:34:33;;;;;;;15.67;11.80;;;;;;;9.64;85.44;94792.00;5075930;28;20927;-78
2023/03/31 04:37:02;;;;;;;18.70;13.07;;;;;;;9.53;85.47;94792.03;5074641;28;20575;-80
2023/03/31 04:39:30;;;;;;;16.03;12.50;;;;;;;9.57;84.81;94791.66;5074613;28;20576;-78
2023/03/31 04:41:58;;;;;;;21.93;11.10;;;;;;;9.74;85.75;94797.28;5074614;28;20447;-77
2023/03/31 04:44:25;;;;;;;15.23;10.00;;;;;;;9.83;86.31;94791.28;5074834;28;20862;-79
2023/03/31 04:46:52;;;;;;;12.40;8.83;;;;;;;9.92;85.92;94790.53;5074813;28;20501;-79
2023/03/31 04:49:19;;;;;;;11.37;8.20;;;;;;;10.02;85.94;94782.72;5074633;28;20440;-79
2023/03/31 04:51:46;;;;;;;15.13;8.70;;;;;;;10.10;85.97;94788.13;5074417;28;20437;-79
2023/03/31 04:54:15;;;;;;;16.00;9.03;;;;;;;10.20;85.67;94792.50;5074508;28;20441;-78
2023/03/31 04:56:41;;;;;;;11.23;8.37;;;;;;;10.25;85.14;94786.88;5055194;28;20495;-79
2023/03/31 04:59:08;;;;;;;10.93;8.17;;;;;;;10.35;85.31;94782.50;5074021;28;20441;-78
2023/03/31 05:01:36;;;;;;;12.97;9.00;;;;;;;10.40;86.99;94771.59;5039004;28;20463;-77
2023/03/31 05:04:02;;;;;;;12.27;8.27;;;;;;;10.51;88.47;94768.91;5074466;28;20449;-78
2023/03/31 05:06:30;;;;;;;12.87;8.80;;;;;;;10.62;85.45;94755.69;5074490;28;20870;-78
2023/03/31 05:08:56;;;;;;;12.40;9.30;;;;;;;10.78;87.55;94761.25;5072561;28;20437;-80
2023/03/31 05:11:25;;;;;;;21.27;11.03;;;;;;;10.94;88.75;94762.50;5074546;28;20459;-80
2023/03/31 05:13:52;;;;;;;15.33;10.47;;;;;;;11.01;87.45;94767.13;5074954;28;20903;-80
2023/03/31 05:16:18;;;;;;;13.63;9.00;;;;;;;11.07;85.38;94765.75;5074292;28;20538;-80
2023/03/31 05:18:46;;;;;;;13.37;8.93;;;;;;;11.12;83.76;94759.09;5074285;28;20471;-80
2023/03/31 05:21:15;;;;;;;13.10;8.67;;;;;;;11.05;81.26;94757.16;5074613;28;20474;-80
2023/03/31 05:23:42;;;;;;;12.57;8.90;;;;;;;11.08;83.05;94751.63;5073368;28;20424;-79
2023/03/31 05:26:10;;;;;;;13.17;9.00;;;;;;;11.11;82.23;94739.06;5073745;28;20460;-80
2023/03/31 05:28:38;;;;;;;28.30;16.30;;;;;;;11.18;84.79;94734.09;5074508;28;20767;-79
2023/03/31 05:31:06;;;;;;;28.97;17.13;;;;;;;11.25;81.30;94731.72;5072253;28;20465;-81
2023/03/31 05:33:33;;;;;;;16.77;10.47;;;;;;;11.34;83.19;94731.75;5054806;28;20855;-79
2023/03/31 05:36:00;;;;;;;23.25;11.80;;;;;;;11.60;79.64;94744.31;5071031;28;20450;-84
2023/03/31 05:38:30;;;;;;;29.30;12.70;;;;;;;11.88;79.01;94743.50;5074252;28;20206;-80
2023/03/31 05:40:57;;;;;;;24.70;14.50;;;;;;;12.11;77.09;94738.69;5073882;28;20865;-80
2023/03/31 05:43:24;;;;;;;17.97;14.07;;;;;;;12.18;76.38;94736.34;5054123;28;20466;-80
2023/03/31 05:45:52;;;;;;;20.93;12.90;;;;;;;12.31;76.28;94734.22;5054182;28;20434;-80
2023/03/31 05:48:20;;;;;;;21.57;9.77;;;;;;;12.52;72.56;94740.09;5054003;28;20453;-80
2023/03/31 05:50:47;;;;;;;19.93;10.90;;;;;;;12.77;73.28;94740.38;5053614;28;20459;-80
2023/03/31 05:53:14;;;;;;;14.70;8.57;;;;;;;12.82;72.79;94736.34;5072566;28;20452;-80
2023/03/31 05:55:41;;;;;;;14.83;9.73;;;;;;;13.22;77.64;94743.03;5073866;28;20449;-80
2023/03/31 05:58:08;;;;;;;12.53;8.93;;;;;;;13.40;71.33;94737.78;5074067;28;20431;-80
2023/03/31 06:00:36;;;;;;;12.77;8.43;;;;;;;13.40;69.23;94743.88;5073683;28;20541;-80
2023/03/31 06:03:06;;;;;;;14.27;7.43;;;;;;;13.51;67.64;94748.91;5073932;28;20433;-81
2023/03/31 06:05:34;;;;;;;10.13;7.27;;;;;;;13.78;67.71;94752.44;5073461;28;20557;-80
2023/03/31 06:08:00;;;;;;;11.90;7.10;;;;;;;14.11;65.50;94749.03;5073544;28;21196;-80
2023/03/31 06:10:27;;;;;;;14.77;6.27;;;;;;;14.40;63.47;94753.16;5073759;28;20906;-80
2023/03/31 06:12:54;;;;;;;10.40;7.70;;;;;;;14.47;64.13;94749.81;5072930;28;20941;-80
2023/03/31 06:15:21;;;;;;;7.10;5.70;;;;;;;14.52;64.08;94757.25;5072663;28;20443;-80
2023/03/31 06:17:47;;;;;;;7.23;5.30;;;;;;;14.35;62.59;94758.09;5072729;28;20492;-80
2023/03/31 06:20:16;;;;;;;6.20;4.27;;;;;;;14.11;62.75;94754.31;5072235;28;20496;-80
2023/03/31 06:22:42;;;;;;;6.73;5.20;;;;;;;13.74;63.29;94756.34;5072343;28;20531;-80
2023/03/31 06:25:09;;;;;;;9.50;5.40;;;;;;;13.69;63.89;94753.34;5072179;28;20445;-80
2023/03/31 06:27:36;;;;;;;5.30;4.80;;;;;;;13.69;64.99;94753.34;5072297;28;20461;-81
2023/03/31 06:30:03;;;;;;;10.80;5.40;;;;;;;13.37;65.61;94744.19;5053462;28;20439;-80
2023/03/31 06:32:30;;;;;;;9.33;5.40;;;;;;;13.37;66.51;94752.09;5072353;28;20456;-81
2023/03/31 06:34:57;;;;;;;11.57;5.30;;;;;;;13.28;67.59;94750.31;5072159;28;20937;-80
2023/03/31 06:37:25;;;;;;;8.27;5.03;;;;;;;13.23;67.68;94750.78;5075143;28;20995;-81
2023/03/31 06:39:52;;;;;;;10.00;6.27;;;;;;;12.99;68.76;94746.06;5076262;28;20503;-80
2023/03/31 06:42:18;;;;;;;16.03;6.97;;;;;;;13.02;69.30;94758.94;5076205;28;20457;-80
2023/03/31 06:44:45;;;;;;;11.17;8.60;;;;;;;13.07;69.46;94755.03;5076455;28;20864;-81
2023/03/31 06:47:12;;;;;;;14.73;9.07;;;;;;;13.14;70.21;94761.38;5076048;28;20790;-81
2023/03/31 06:49:39;;;;;;;12.20;8.07;;;;;;;13.10;69.81;94752.94;5076431;28;20502;-80
2023/03/31 06:52:05;;;;;;;13.13;6.50;;;;;;;13.13;70.00;94751.81;5075843;28;20931;-81
2023/03/31 06:54:34;;;;;;;13.93;6.67;;;;;;;13.04;69.55;94758.81;5076636;28;20511;-80
2023/03/31 06:57:00;;;;;;;10.80;7.53;;;;;;;13.12;69.22;94761.50;5075608;28;20486;-80
2023/03/31 06:59:27;;;;;;;11.57;8.13;;;;;;;13.02;68.98;94755.50;5076395;28;20433;-81
2023/03/31 07:01:54;;;;;;;13.77;8.93;;;;;;;12.80;70.93;94748.00;5076053;28;20494;-81
2023/03/31 07:04:21;;;;;;;10.47;7.40;;;;;;;12.91;70.87;94751.25;5076302;28;20448;-81
2023/03/31 07:06:47;;;;;;;9.60;7.20;;;;;;;12.95;70.03;94747.31;5075638;28;20528;-80
2023/03/31 07:09:14;;;;;;;8.33;6.20;;;;;;;13.11;69.20;94744.06;5075612;28;20924;-81
2023/03/31 07:11:42;;;;;;;9.67;7.03;;;;;;;13.36;68.64;94737.25;5075987;28;20450;-80
2023/03/31 07:14:09;;;;;;;7.47;5.57;;;;;;;13.39;67.21;94736.13;5075949;28;20804;-80
2023/03/31 07:16:36;;;;;;;7.00;6.27;;;;;;;13.45;66.85;94717.06;5075532;28;20482;-80
2023/03/31 07:19:04;;;;;;;9.40;6.43;;;;;;;13.82;68.10;94709.75;5075597;28;20452;-80
2023/03/31 07:21:31;;;;;;;11.03;5.73;;;;;;;14.13;66.02;94702.22;5075504;28;20965;-81
2023/03/31 07:23:58;;;;;;;12.47;5.13;;;;;;;14.68;64.81;94696.56;5075359;28;20450;-81
2023/03/31 07:26:25;;;;;;;7.80;4.73;;;;;;;15.25;63.47;94686.13;5075470;28;20452;-80
2023/03/31 07:28:56;;;;;;;7.37;5.90;;;;;;;15.80;61.11;94690.81;5075399;28;20452;-81
2023/03/31 07:31:23;;;;;;;14.90;5.33;;;;;;;16.22;60.44;94697.72;5075488;28;20449;-78
2023/03/31 07:33:49;;;;;;;10.40;5.97;;;;;;;16.58;58.37;94688.31;5075446;28;20449;-79
2023/03/31 07:36:17;;;;;;;13.10;7.90;;;;;;;16.83;58.04;94675.81;5075313;28;20827;-80
2023/03/31 07:38:47;;;;;;;13.90;7.50;;;;;;;17.03;56.67;94684.16;5076197;28;20434;-80
2023/03/31 07:41:15;;;;;;;7.70;5.60;;;;;;;17.25;55.66;94691.31;5075117;28;20531;-80
2023/03/31 07:43:42;;;;;;;8.03;5.60;;;;;;;17.56;55.36;94687.78;5075359;28;20437;-81
2023/03/31 07:46:16;;;;;;;7.43;5.23;;;;;;;17.75;52.64;94679.38;5074914;28;20444;-81
2023/03/31 07:48:45;;;;;;;6.63;5.17;;;;;;;18.03;52.10;94670.84;5074305;28;20445;-81
2023/03/31 07:51:12;;;;;;;8.73;5.23;;;;;;;18.23;50.21;94664.00;5074787;28;20966;-81
2023/03/31 07:53:39;;;;;;;14.10;5.57;;;;;;;18.42;48.96;94657.28;5075138;28;20918;-80
2023/03/31 07:56:06;;;;;;;8.20;4.17;;;;;;;18.62;46.53;94658.41;5075541;28;20514;-81
2023/03/31 07:58:33;;;;;;;8.50;4.47;;;;;;;18.86;45.74;94652.78;5074778;28;20487;-80
2023/03/31 08:01:00;;;;;;;8.10;5.30;;;;;;;19.23;45.67;94652.78;5074753;28;20925;-80
2023/03/31 08:03:30;;;;;;;8.23;4.87;;;;;;;19.57;43.76;94652.13;5075009;28;20440;-80
2023/03/31 08:05:58;;;;;;;8.40;4.63;;;;;;;19.87;43.92;94650.13;5074619;28;20472;-81
2023/03/31 08:08:25;;;;;;;11.90;5.00;;;;;;;19.98;43.35;94626.47;5074667;28;20436;-81
2023/03/31 08:10:52;;;;;;;9.33;6.53;;;;;;;20.19;43.44;94633.56;5055943;28;20486;-82
2023/03/31 08:13:19;;;;;;;9.47;6.17;;;;;;;20.41;43.22;94637.84;5074646;28;20455;-82
2023/03/31 08:15:45;;;;;;;16.43;6.80;;;;;;;20.55;42.10;94643.25;5074553;28;20507;-80
2023/03/31 08:18:12;;;;;;;5.43;4.93;;;;;;;20.46;41.22;94639.06;5074215;28;20488;-81
2023/03/31 08:20:40;;;;;;;8.23;5.23;;;;;;;20.34;40.87;94626.28;5074758;28;20458;-81
2023/03/31 08:23:10;;;;;;;10.40;5.80;;;;;;;20.22;41.64;94625.16;5074561;28;20470;-80
2023/03/31 08:25:38;;;;;;;9.97;6.00;;;;;;;20.18;42.48;94623.09;5074924;28;20451;-81
2023/03/31 08:28:05;;;;;;;8.60;5.80;;;;;;;20.16;42.37;94628.63;5074454;28;20525;-80
2023/03/31 08:30:33;;;;;;;7.73;5.10;;;;;;;20.15;40.85;94618.97;5074277;28;20435;-80
2023/03/31 08:32:59;;;;;;;5.40;4.87;;;;;;;20.16;41.61;94617.97;5074473;28;20804;-81
2023/03/31 08:35:29;;;;;;;5.23;4.70;;;;;;;19.93;40.25;94609.41;5074615;28;20858;-81
2023/03/31 08:37:57;;;;;;;4.43;3.93;;;;;;;19.82;40.32;94602.78;5074051;28;20489;-81
2023/03/31 08:40:27;;;;;;;7.20;4.60;;;;;;;19.50;41.88;94609.44;5074288;28;20433;-81
2023/03/31 08:42:58;;;;;;;5.13;4.23;;;;;;;19.00;41.74;94607.72;5073930;28;20446;-81
2023/03/31 08:45:29;;;;;;;5.93;3.93;;;;;;;18.62;45.60;94604.41;5074083;28;20448;-80
2023/03/31 08:48:02;;;;;;;5.20;4.50;;;;;;;18.40;44.42;94600.84;5073891;28;20457;-81
2023/03/31 08:50:33;;;;;;;10.93;4.30;;;;;;;18.14;44.36;94598.66;5073870;28;20808;-82
2023/03/31 08:53:06;;;;;;;4.70;3.73;;;;;;;18.06;43.26;94606.72;5073698;28;20446;-82
2023/03/31 08:55:42;;;;;;;7.67;3.80;;;;;;;18.21;45.96;94579.19;5073721;28;20472;-81
2023/03/31 08:58:18;;;;;;;4.03;3.20;;;;;;;18.38;43.63;94585.09;5073456;28;20493;-81
2023/03/31 09:00:51;;;;;;;6.47;3.53;;;;;;;18.43;43.37;94569.44;5054021;28;20441;-80
2023/03/31 09:03:28;;;;;;;3.90;3.20;;;;;;;18.48;42.93;94571.53;5074759;28;20513;-81
2023/03/31 09:06:01;;;;;;;10.30;5.97;;;;;;;18.22;42.52;94566.72;5074746;28;20480;-81
2023/03/31 09:08:42;;;;;;;7.63;3.50;;;;;;;17.89;42.89;94567.06;5074226;28;20444;-81
2023/03/31 09:11:18;;;;;;;7.70;4.30;;;;;;;17.80;43.91;94572.66;5054642;28;20437;-81
2023/03/31 09:14:04;;;;;;;5.10;3.70;;;;;;;17.93;43.62;94576.34;5073498;28;20448;-81
2023/03/31 09:16:35;;;;;;;8.37;4.13;;;;;;;17.83;43.09;94565.16;5073719;28;20468;-81
2023/03/31 09:19:02;;;;;;;4.10;3.70;;;;;;;17.88;42.86;94573.38;5073156;28;20451;-81
2023/03/31 09:21:32;;;;;;;9.33;5.57;;;;;;;17.70;42.96;94553.53;5054522;28;20454;-81
2023/03/31 09:24:06;;;;;;;15.33;5.30;;;;;;;17.68;43.53;94574.13;5073199;28;20438;-81
2023/03/31 09:26:39;;;;;;;4.30;3.93;;;;;;;17.68;44.56;94584.75;5073641;28;20443;-81
2023/03/31 09:29:12;;;;;;;11.83;4.17;;;;;;;17.71;44.41;94581.72;5073314;28;21019;-81
2023/03/31 09:31:43;;;;;;;7.60;5.10;;;;;;;17.53;43.46;94569.56;5073242;28;20444;-81
2023/03/31 09:34:15;;;;;;;6.40;4.80;;;;;;;17.53;46.49;94584.66;5073264;28;20471;-81
2023/03/31 09:36:43;;;;;;;7.77;3.60;;;;;;;17.53;44.17;94584.66;5072881;28;20980;-79
2023/03/31 09:39:14;;;;;;;6.03;4.20;;;;;;;17.62;43.69;94580.91;5072909;28;20451;-80
2023/03/31 09:41:45;;;;;;;10.87;5.30;;;;;;;17.80;43.98;94586.75;5072807;28;20444;-81
2023/03/31 09:44:28;;;;;;;16.80;5.13;;;;;;;18.18;43.01;94579.53;5072974;28;20458;-80
2023/03/31 09:46:55;;;;;;;5.97;3.90;;;;;;;18.39;42.22;94576.13;5011176;28;20454;-81
2023/03/31 09:49:25;;;;;;;3.20;2.90;;;;;;;18.50;42.30;94573.00;5011165;28;20534;-80
2023/03/31 09:52:01;;;;;;;4.77;3.10;;;;;;;18.59;42.39;94565.75;5010651;28;20487;-81
2023/03/31 09:54:36;;;;;;;8.70;4.40;;;;;;;18.72;41.97;94575.72;5011005;28;20512;-80
2023/03/31 09:57:12;;;;;;;4.80;3.40;;;;;;;18.90;41.87;94572.66;5010762;28;21117;-80
2023/03/31 09:59:40;;;;;;;11.83;3.67;;;;;;;19.03;41.27;94557.63;5010898;28;20795;-80
2023/03/31 10:02:29;;;;;;;6.83;2.83;;;;;;;19.18;41.02;94562.91;4994242;28;20439;-80
2023/03/31 10:04:55;;;;;;;4.00;2.93;;;;;;;19.13;39.98;94552.84;5010683;28;20445;-80
2023/03/31 10:07:25;;;;;;;6.13;3.40;;;;;;;19.18;40.96;94552.28;5010638;28;20491;-80
2023/03/31 10:09:54;;;;;;;4.63;3.50;;;;;;;19.12;40.41;94551.19;5010775;28;20443;-81
2023/03/31 10:12:25;;;;;;;4.93;3.50;;;;;;;19.25;40.16;94554.97;5010093;28;20866;-81
2023/03/31 10:14:53;;;;;;;3.40;3.10;;;;;;;19.24;40.26;94532.06;5010528;28;20893;-81
2023/03/31 10:17:22;;;;;;;6.90;3.30;;;;;;;19.12;40.38;94537.91;5010320;28;20489;-81
2023/03/31 10:19:51;;;;;;;4.73;3.60;;;;;;;19.02;41.23;94541.88;5010362;28;20440;-81
2023/03/31 10:22:28;;;;;;;3.93;3.17;;;;;;;18.84;41.18;94529.03;5010573;28;20446;-81
2023/03/31 10:25:10;;;;;;;9.00;3.67;;;;;;;18.72;41.68;94538.50;5060463;28;20517;-82
2023/03/31 10:27:41;;;;;;;3.40;3.03;;;;;;;18.42;42.41;94519.97;5072431;28;20544;-81
2023/03/31 10:30:12;;;;;;;5.73;3.67;;;;;;;18.31;42.50;94527.59;5072570;28;20853;-81
2023/03/31 10:32:41;;;;;;;9.53;4.87;;;;;;;18.29;42.26;94527.78;5072355;28;21013;-78
2023/03/31 10:35:24;;;;;;;5.23;3.43;;;;;;;18.26;42.16;94520.19;5072074;28;20440;-81
2023/03/31 10:37:54;;;;;;;5.73;3.90;;;;;;;18.14;42.66;94517.16;5072220;28;20846;-80
2023/03/31 10:40:25;;;;;;;4.63;3.03;;;;;;;18.12;42.82;94513.06;5072117;28;20445;-79
2023/03/31 10:43:01;;;;;;;10.60;5.47;;;;;;;18.12;42.93;94505.09;5072007;28;20458;-80
2023/03/31 10:45:30;;;;;;;8.47;3.40;;;;;;;18.11;42.73;94509.56;5072126;28;20452;-79
2023/03/31 10:47:59;;;;;;;4.77;4.07;;;;;;;18.08;42.70;94509.13;5071993;28;20499;-79
2023/03/31 10:50:29;;;;;;;4.93;3.73;;;;;;;18.03;42.73;94507.03;5072100;28;20437;-80
2023/03/31 10:53:02;;;;;;;19.43;4.67;;;;;;;17.94;42.59;94508.16;5072322;28;20453;-79
2023/03/31 10:55:36;;;;;;;6.80;4.03;;;;;;;17.84;42.85;94521.69;5072118;28;20488;-78
2023/03/31 10:58:14;;;;;;;12.90;4.73;;;;;;;17.87;44.43;94505.38;5071954;28;20487;-79
2023/03/31 11:00:57;;;;;;;5.63;3.57;;;;;;;17.86;43.29;94495.78;5071964;28;20811;-81
2023/03/31 11:03:45;;;;;;;9.60;4.53;;;;;;;17.90;43.48;94498.88;5071714;28;20489;-79
2023/03/31 11:06:17;;;;;;;10.37;3.33;;;;;;;17.91;43.20;94503.19;5071739;28;20468;-79
2023/03/31 11:08:56;;;;;;;4.23;3.47;;;;;;;17.90;43.64;94497.03;5053170;28;20442;-79
2023/03/31 11:11:39;;;;;;;8.03;3.03;;;;;;;17.88;43.38;94495.59;5071868;28;20441;-80
2023/03/31 11:14:17;;;;;;;5.00;3.70;;;;;;;17.86;42.89;94484.34;5071832;28;20485;-80
2023/03/31 11:16:52;;;;;;;7.60;3.33;;;;;;;17.88;43.46;94484.97;5071560;28;20446;-78
2023/03/31 11:19:36;;;;;;;9.50;3.27;;;;;;;17.84;42.86;94471.25;5071449;28;21027;-82
2023/03/31 11:22:09;;;;;;;4.80;3.50;;;;;;;17.82;44.10;94478.56;5071865;28;20449;-79
2023/03/31 11:25:13;;;;;;;3.07;2.80;;;;;;;17.81;43.28;94478.75;5074822;28;20440;-79
2023/03/31 11:28:03;;;;;;;7.30;3.80;;;;;;;17.85;43.60;94475.53;5013468;28;20801;-79
2023/03/31 11:30:33;;;;;;;7.43;3.33;;;;;;;17.81;43.34;94461.00;5013690;28;20468;-79
2023/03/31 11:33:23;;;;;;;8.37;5.23;;;;;;;17.76;43.05;94458.09;5013379;28;20455;-79
2023/03/31 11:36:04;;;;;;;5.33;3.90;;;;;;;17.70;44.25;94453.50;5013489;28;20454;-79
2023/03/31 11:38:52;;;;;;;8.87;3.60;;;;;;;17.73;43.73;94447.00;5013356;28;20483;-79
2023/03/31 11:41:24;;;;;;;8.57;5.17;;;;;;;17.73;43.91;94445.19;4993677;28;20464;-79
2023/03/31 11:43:56;;;;;;;11.30;6.07;;;;;;;17.81;44.71;94445.06;4993610;28;20444;-79
2023/03/31 11:46:27;;;;;;;9.10;5.23;;;;;;;17.91;44.93;94448.25;4993616;28;20439;-80
2023/03/31 11:48:59;;;;;;;6.77;3.63;;;;;;;17.94;43.96;94442.59;4993507;28;20506;-79
2023/03/31 11:51:29;;;;;;;8.07;4.83;;;;;;;17.91;43.44;94428.84;4993426;28;20452;-81